createdAt,value
2023-03-24T00:00:03.031Z,92.25
2023-03-24T00:05:02.556Z,93.04
2023-03-24T00:10:03.345Z,92.84
2023-03-24T00:15:03.096Z,92.03
2023-03-24T00:20:02.353Z,93.49
2023-03-24T00:25:02.817Z,94.59
2023-03-24T00:30:02.847Z,94.35
2023-03-24T00:35:03.211Z,94.08
2023-03-24T00:40:03.141Z,93.25
2023-03-24T00:45:02.936Z,92.95
2023-03-24T00:50:02.691Z,93.18
2023-03-24T00:55:03.227Z,93.13
2023-03-24T01:00:02.765Z,92.62
2023-03-24T01:05:03.496Z,92.67
2023-03-24T01:10:03.363Z,92.46
2023-03-24T01:15:03.212Z,92.59
2023-03-24T01:20:03.101Z,93.29
2023-03-24T01:25:02.719Z,92.8
2023-03-24T01:30:03.440Z,91.31
2023-03-24T01:35:03.660Z,90.27
2023-03-24T01:40:03.256Z,88.95
2023-03-24T01:45:03.249Z,88.38
2023-03-24T01:50:02.850Z,88.88
2023-03-24T01:55:03.675Z,88.41
2023-03-24T02:00:03.540Z,88.45
2023-03-24T02:05:03.215Z,88.13
2023-03-24T02:10:02.895Z,88.38
2023-03-24T02:15:03.165Z,89.43
2023-03-24T02:20:02.917Z,91.56
2023-03-24T02:25:02.761Z,92.94
2023-03-24T02:30:02.962Z,93.47
2023-03-24T02:35:02.638Z,95.3
2023-03-24T02:40:03.396Z,97.04
2023-03-24T02:45:03.334Z,97.27
2023-03-24T02:50:03.229Z,99.09
2023-03-24T02:55:03.818Z,100
2023-03-24T03:00:02.922Z,100
2023-03-24T03:05:03.556Z,100
2023-03-24T03:10:03.267Z,100
2023-03-24T03:15:02.932Z,100
2023-03-24T03:20:02.905Z,100
2023-03-24T03:25:03.060Z,100
2023-03-24T03:30:03.428Z,100
2023-03-24T03:35:03.383Z,100
2023-03-24T03:40:03.115Z,100
2023-03-24T03:45:02.984Z,100
2023-03-24T03:50:02.670Z,100
2023-03-24T03:55:03.552Z,100
2023-03-24T04:00:03.373Z,100
2023-03-24T04:05:07.364Z,100
2023-03-24T04:10:03.159Z,100
2023-03-24T04:15:02.931Z,100
2023-03-24T04:20:03.082Z,100
2023-03-24T04:25:02.908Z,100
2023-03-24T04:30:03.278Z,100
2023-03-24T04:35:02.824Z,100
2023-03-24T04:40:02.671Z,100
2023-03-24T04:45:03.495Z,100
2023-03-24T04:50:03.224Z,100
2023-03-24T04:55:03.108Z,100
2023-03-24T05:00:02.664Z,100
2023-03-24T05:05:03.403Z,100
2023-03-24T05:10:03.280Z,100
2023-03-24T05:15:03.062Z,100
2023-03-24T05:20:02.939Z,100
2023-03-24T05:25:02.820Z,100
2023-03-24T05:30:03.547Z,100
2023-03-24T05:35:03.175Z,99.8
2023-03-24T05:40:02.988Z,99.53
2023-03-24T05:45:02.764Z,99.68
2023-03-24T05:50:03.383Z,99.52
2023-03-24T05:55:03.896Z,97.91
2023-03-24T06:00:03.058Z,97.87
2023-03-24T06:05:02.774Z,97.54
2023-03-24T06:10:03.610Z,96.8
2023-03-24T06:15:03.256Z,96.6
2023-03-24T06:20:03.012Z,96.14
2023-03-24T06:25:03.031Z,97.2
2023-03-24T06:30:03.625Z,96.06
2023-03-24T06:35:03.310Z,94.91
2023-03-24T06:40:03.072Z,93.91
2023-03-24T06:45:03.520Z,91.85
2023-03-24T06:50:02.672Z,91.35
2023-03-24T06:55:03.281Z,91.73
2023-03-24T07:00:02.778Z,89.98
2023-03-24T07:05:03.607Z,89.12
2023-03-24T07:10:03.074Z,86.5
2023-03-24T07:15:02.899Z,86.94
2023-03-24T07:20:03.612Z,86.28
2023-03-24T07:25:03.248Z,88.09
2023-03-24T07:30:03.402Z,87.74
2023-03-24T07:35:03.039Z,89.31
2023-03-24T07:45:02.909Z,91.18
2023-03-24T07:50:02.721Z,91.06
2023-03-24T07:55:03.806Z,94.93
2023-03-24T08:00:03.072Z,95.31
2023-03-24T08:05:03.112Z,96.16
2023-03-24T08:10:02.571Z,96.05
2023-03-24T08:15:03.613Z,95.78
2023-03-24T08:20:06.539Z,94.68
2023-03-24T08:25:03.368Z,94.57
2023-03-24T08:30:02.683Z,94.92
2023-03-24T08:35:03.420Z,93.19
2023-03-24T08:40:03.076Z,92.47
2023-03-24T08:45:02.873Z,91.82
2023-03-24T08:50:02.828Z,89.27
2023-03-24T08:55:03.431Z,83.33
2023-03-24T09:00:03.156Z,84.43
2023-03-24T09:05:02.924Z,82.62
2023-03-24T09:10:02.557Z,84.21
2023-03-24T09:15:03.276Z,80.38
2023-03-24T09:20:03.143Z,80.66
2023-03-24T09:25:03.306Z,80.55
2023-03-24T09:30:03.060Z,81.89
2023-03-24T09:35:03.244Z,80.41
2023-03-24T09:40:03.039Z,80.03
2023-03-24T09:45:02.762Z,77.33
2023-03-24T09:50:03.635Z,77.75
2023-03-24T09:55:03.866Z,78.97
2023-03-24T10:00:02.806Z,78.15
2023-03-24T10:05:02.731Z,76.33
2023-03-24T10:10:02.837Z,79.2
2023-03-24T10:15:02.755Z,79.54
2023-03-24T10:20:03.487Z,77.97
2023-03-24T10:25:03.114Z,78.81
2023-03-24T10:30:03.108Z,78.83
2023-03-24T10:35:02.725Z,80.52
2023-03-24T10:40:02.919Z,81.27
2023-03-24T10:45:02.629Z,76
2023-03-24T10:50:15.428Z,80.25
2023-03-24T10:55:02.957Z,90.53
2023-03-24T11:00:02.802Z,94.57
2023-03-24T11:05:03.419Z,87.67
2023-03-24T11:10:02.688Z,89.15
2023-03-24T11:15:23.187Z,91.62
2023-03-24T11:20:03.552Z,91.97
2023-03-24T11:25:03.244Z,88.18
2023-03-24T11:30:03.054Z,88.04
2023-03-24T11:35:02.447Z,84.76
2023-03-24T11:40:02.762Z,82.19
2023-03-24T11:45:02.696Z,83.26
2023-03-24T11:50:03.467Z,85.34
2023-03-24T11:55:03.547Z,86.59
2023-03-24T12:00:03.056Z,86.03
2023-03-24T12:05:02.939Z,85.46
2023-03-24T12:10:03.559Z,86.14
2023-03-24T12:15:02.849Z,85.95
2023-03-24T12:20:03.387Z,85.51
2023-03-24T12:25:03.292Z,85.78
2023-03-24T12:30:03.057Z,86.5
2023-03-24T12:35:02.850Z,86.43
2023-03-24T12:40:03.565Z,87.62
2023-03-24T12:45:03.533Z,86.56
2023-03-24T12:50:03.236Z,86.28
2023-03-24T12:55:03.152Z,87.69
2023-03-24T13:00:03.071Z,87.65
2023-03-24T13:05:02.740Z,87.91
2023-03-24T13:10:03.397Z,89.06
2023-03-24T13:15:03.317Z,90.88
2023-03-24T13:20:03.194Z,92.43
2023-03-24T13:25:02.924Z,92.26
2023-03-24T13:30:02.831Z,94.04
2023-03-24T13:35:03.553Z,95.07
2023-03-24T13:40:03.389Z,94.29
2023-03-24T13:45:03.092Z,96.43
2023-03-24T13:50:02.869Z,96.61
2023-03-24T13:55:02.880Z,94.21
2023-03-24T14:00:03.591Z,92.94
2023-03-24T14:05:03.272Z,91.29
2023-03-24T14:10:02.931Z,91.56
2023-03-24T14:15:02.791Z,89.1
2023-03-24T14:20:03.288Z,90.35
2023-03-24T14:25:03.331Z,89.31
2023-03-24T14:30:03.203Z,88.17
2023-03-24T14:35:03.021Z,87.33
2023-03-24T14:40:02.988Z,86.95
2023-03-24T14:45:03.872Z,88.63
2023-03-24T14:50:02.921Z,85.38
2023-03-24T14:55:03.551Z,84.04
2023-03-24T15:00:03.033Z,83.07
2023-03-24T15:05:02.641Z,82
2023-03-24T15:10:03.534Z,83.5
2023-03-24T15:15:03.266Z,81.5
2023-03-24T15:20:03.311Z,80.82
2023-03-24T15:25:03.008Z,75.98
2023-03-24T15:30:02.965Z,72.01
2023-03-24T15:35:02.625Z,74.18
2023-03-24T15:40:16.414Z,72.33
2023-03-24T15:45:03.321Z,71.91
2023-03-24T15:50:06.468Z,73.83
2023-03-24T15:55:04.205Z,73.75
2023-03-24T16:00:03.133Z,73
2023-03-24T16:10:03.313Z,72.88
2023-03-24T16:15:03.048Z,73.99
2023-03-24T16:20:02.787Z,74.32
2023-03-24T16:25:02.804Z,75.63
2023-03-24T16:30:03.567Z,74.11
2023-03-24T16:35:03.211Z,77.59
2023-03-24T16:40:04.279Z,81.2
2023-03-24T16:45:03.033Z,81.21
2023-03-24T16:50:03.057Z,81.65
2023-03-24T16:55:03.304Z,80.94
2023-03-24T17:00:03.128Z,81.46
2023-03-24T17:05:02.821Z,80.49
2023-03-24T17:10:03.295Z,81.5
2023-03-24T17:15:03.532Z,81.9
2023-03-24T17:20:06.043Z,81.75
2023-03-24T17:25:02.997Z,83.2
2023-03-24T17:30:03.626Z,83.17
2023-03-24T17:35:02.898Z,83.26
2023-03-24T17:40:02.586Z,82.77
2023-03-24T17:45:03.568Z,83.03
2023-03-24T17:50:03.273Z,82.77
2023-03-24T17:55:03.769Z,83.77
2023-03-24T18:00:03.004Z,84.71
2023-03-24T18:05:03.496Z,85.93
2023-03-24T18:10:03.384Z,87.39
2023-03-24T18:15:03.200Z,86.98
2023-03-24T18:20:02.927Z,86.05
2023-03-24T18:25:02.853Z,85.4
2023-03-24T18:30:03.639Z,85.97
2023-03-24T18:35:03.188Z,86.26
2023-03-24T18:40:02.954Z,88.09
2023-03-24T18:45:02.840Z,88.33
2023-03-24T18:50:02.718Z,85.68
2023-03-24T18:55:03.729Z,86.32
2023-03-24T19:00:03.264Z,87.22
2023-03-24T19:05:02.987Z,85.65
2023-03-24T19:10:02.773Z,84.01
2023-03-24T19:15:03.569Z,85.36
2023-03-24T19:20:03.322Z,85.74
2023-03-24T19:25:03.024Z,84.66
2023-03-24T19:30:02.496Z,83.55
2023-03-24T19:35:03.459Z,83.59
2023-03-24T19:40:03.122Z,83.7
2023-03-24T19:45:02.828Z,83.49
2023-03-24T19:50:03.833Z,82.46
2023-03-24T19:55:03.436Z,83.9
2023-03-24T20:00:03.062Z,85.57
2023-03-24T20:05:02.891Z,86.67
2023-03-24T20:10:02.893Z,86.54
2023-03-24T20:15:02.914Z,85.61
2023-03-24T20:20:02.699Z,84.61
2023-03-24T20:25:03.513Z,86.1
2023-03-24T20:30:03.204Z,86.19
2023-03-24T20:35:02.962Z,89.2
2023-03-24T20:40:02.645Z,87.57
2023-03-24T20:45:03.623Z,84.01
2023-03-24T20:50:03.052Z,86.29
2023-03-24T20:55:04.243Z,88.32
2023-03-24T21:00:03.276Z,89.86
2023-03-24T21:10:02.704Z,98.2
2023-03-24T21:15:03.511Z,100
2023-03-24T21:20:03.512Z,100
2023-03-24T21:25:03.032Z,100
2023-03-24T21:30:02.818Z,100
2023-03-24T21:35:02.615Z,100
2023-03-24T21:40:02.717Z,100
2023-03-24T21:45:03.443Z,100
2023-03-24T21:50:02.488Z,100
2023-03-24T21:55:03.498Z,100
2023-03-24T22:00:02.673Z,100
2023-03-24T22:05:03.439Z,100
2023-03-24T22:10:03.318Z,100
2023-03-24T22:15:02.979Z,100
2023-03-24T22:20:02.895Z,100
2023-03-24T22:25:02.724Z,100
2023-03-24T22:30:02.779Z,100
2023-03-24T22:35:03.513Z,100
2023-03-24T22:40:03.539Z,100
2023-03-24T22:45:03.472Z,100
2023-03-24T22:50:02.807Z,100
2023-03-24T22:55:03.369Z,100
2023-03-24T23:00:02.403Z,100
2023-03-24T23:05:03.653Z,100
2023-03-24T23:10:03.225Z,100
2023-03-24T23:15:03.249Z,100
2023-03-24T23:20:02.684Z,100
2023-03-24T23:25:03.788Z,100
2023-03-24T23:30:03.260Z,100
2023-03-24T23:35:02.976Z,100
2023-03-24T23:40:03.071Z,100
2023-03-24T23:45:02.818Z,100
2023-03-24T23:50:02.645Z,100
2023-03-24T23:55:04.307Z,100
